Historique des mesures à Cassis (13260), France
Quotidien Résumé Aout 13, 2017 Unités:  Métrique    US   Métrique/US
« Précédent (Jour)
Suivant (Jour) »
Quotidien Hebdomadaire Mensuel Annuel Période au choix
  Maximum: Minimum: Moyenne:
Température: TemperatureC °C 20.6 °C 23.4 °C
Point de rosée: DewpointC °C 8.5 °C 11.3 °C
Humidité: Humidity % 35 % 44 %
Vitesse du vent: 0 km/h 0 km/h 4.2 km/h
Rafales: 0 km/h - -
Vent:- - SSE
Pression: PressurehPa hPa 1011.7 hPa -
Précipitations: 0.0 mm    
Historical Graphs
 
 
Mesures pour : Aout 13, 2017
Heure Temperature Point de rosée Pression Vent Vitesse du vent Rafales Humidité Pluie (par heure) Conditions
TemperatureC °C DewpointC °C PressurehPa hPa Calm     Humidity % HourlyPrecipMM mm SoftwareType W/m2
00:11 23.4 °C 9.4 °C 1012.8 hPa NNW 12.2 km/h 19.2 km/h 41 % 0.0 mm open2300-1.11 W/m2
01:11 22.9 °C 8.9 °C 1013.1 hPa North 2.9 km/h 2.9 km/h 41 % 0.0 mm open2300-1.11 W/m2
02:11 22.2 °C 9.0 °C 1012.8 hPa NE 3.4 km/h 12.7 km/h 43 % 0.0 mm open2300-1.11 W/m2
03:11 21.3 °C 8.8 °C 1012.4 hPa NNW 2.3 km/h 5.1 km/h 45 % 0.0 mm open2300-1.11 W/m2
04:11 21.3 °C 8.8 °C 1012.1 hPa NNW 5.1 km/h 5.1 km/h 45 % 0.0 mm open2300-1.11 W/m2
05:11 21.1 °C 9.0 °C 1012.1 hPa NNE 5.6 km/h 5.6 km/h 46 % 0.0 mm open2300-1.11 W/m2
06:11 20.6 °C 8.5 °C 1011.7 hPa North 6.4 km/h 6.4 km/h 46 % 0.0 mm open2300-1.11 W/m2
07:11 20.6 °C 8.8 °C 1011.7 hPa North 4.7 km/h 7.6 km/h 47 % 0.0 mm open2300-1.11 W/m2
08:11 24.5 °C 10.7 °C 1012.4 hPa SE 7.6 km/h 8.9 km/h 42 % 0.0 mm open2300-1.11 W/m2
09:11 22.8 °C 10.8 °C 1012.8 hPa Calm     47 % 0.0 mm open2300-1.11 W/m2
10:11 23.2 °C 10.9 °C 1013.4 hPa Calm     46 % 0.0 mm open2300-1.11 W/m2
11:11 26.3 °C 12.0 °C 1013.8 hPa SSE 2.3 km/h 9.8 km/h 41 % 0.0 mm open2300-1.11 W/m2
12:11 28.4 °C 11.4 °C 1014.1 hPa South 7.6 km/h 7.6 km/h 35 % 0.0 mm open2300-1.11 W/m2
13:11 29.1 °C 12.0 °C 1013.8 hPa South 6.4 km/h 16.3 km/h 35 % 0.0 mm open2300-1.11 W/m2
14:11 29.1 °C 12.9 °C 1013.8 hPa ESE 4.2 km/h 8 km/h 37 % 0.0 mm open2300-1.11 W/m2
15:11 28.7 °C 14.9 °C 1013.4 hPa SE 8 km/h 8 km/h 43 % 0.0 mm open2300-1.11 W/m2
16:11 28.1 °C 14.3 °C 1013.4 hPa South 6.9 km/h 7.6 km/h 43 % 0.0 mm open2300-1.11 W/m2
17:11 27.5 °C 14.1 °C 1013.4 hPa ESE 1.8 km/h 10.9 km/h 44 % 0.0 mm open2300-1.11 W/m2
18:11 26.8 °C 14.5 °C 1013.4 hPa SW 9.8 km/h 9.8 km/h 47 % 0.0 mm open2300-1.11 W/m2
19:11 25.6 °C 14.1 °C 1013.1 hPa South 5.1 km/h 5.1 km/h 49 % 0.0 mm open2300-1.11 W/m2
20:11 24.8 °C 15.1 °C 1013.1 hPa WSW 2.9 km/h 2.9 km/h 55 % 0.0 mm open2300-1.11 W/m2
21:11 23.4 °C 15.2 °C 1013.8 hPa Calm     60 % 0.0 mm open2300-1.11 W/m2
22:11 22.6 °C 14.9 °C 1014.1 hPa Calm     62 % 0.0 mm open2300-1.11 W/m2
23:11 21.7 °C 13.3 °C 1014.1 hPa Calm     59 % 0.0 mm open2300-1.11 W/m2
Observations météo à CASSIS
WU-History script by Weather Underground - 1 mb